createdAt,value
2023-04-18T00:01:11.408Z,97461.91
2023-04-18T00:04:15.381Z,97460.09
2023-04-18T00:07:19.364Z,97464.19
2023-04-18T00:10:25.330Z,97468.00
2023-04-18T00:13:28.971Z,97461.50
2023-04-18T00:16:33.289Z,97460.47
2023-04-18T00:19:38.578Z,97461.91
2023-04-18T00:22:43.983Z,97470.09
2023-04-18T00:25:48.820Z,97461.13
2023-04-18T00:28:52.744Z,97462.38
2023-04-18T00:31:56.200Z,97457.00
2023-04-18T00:34:59.919Z,97461.78
2023-04-18T00:38:03.388Z,97459.94
2023-04-18T00:41:08.597Z,97456.41
2023-04-18T00:44:12.186Z,97456.81
2023-04-18T00:47:17.134Z,97453.16
2023-04-18T00:50:21.330Z,97455.53
2023-04-18T00:53:25.514Z,97457.34
2023-04-18T00:56:30.788Z,97459.66
2023-04-18T00:59:35.550Z,97457.81
2023-04-18T01:02:40.659Z,97456.34
2023-04-18T01:05:44.582Z,97457.16
2023-04-18T01:08:50.528Z,97457.13
2023-04-18T01:11:56.464Z,97456.28
2023-04-18T01:15:00.742Z,97459.81
2023-04-18T01:18:07.736Z,97449.06
2023-04-18T01:21:11.390Z,97447.84
2023-04-18T01:24:17.938Z,97446.56
2023-04-18T01:27:21.461Z,97453.97
2023-04-18T01:30:25.236Z,97449.06
2023-04-18T01:33:28.726Z,97446.13
2023-04-18T01:36:33.077Z,97449.94
2023-04-18T01:39:38.142Z,97445.56
2023-04-18T01:42:41.935Z,97447.78
2023-04-18T01:45:47.456Z,97439.59
2023-04-18T01:48:51.370Z,97440.13
2023-04-18T01:51:57.114Z,97439.16
2023-04-18T01:55:04.039Z,97442.38
2023-04-18T01:58:07.748Z,97443.66
2023-04-18T02:01:13.256Z,97447.09
2023-04-18T02:04:16.910Z,97442.13
2023-04-18T02:07:23.423Z,97442.66
2023-04-18T02:10:28.902Z,97440.69
2023-04-18T02:13:32.749Z,97441.81
2023-04-18T02:16:36.600Z,97445.50
2023-04-18T02:19:41.117Z,97451.25
2023-04-18T02:22:44.951Z,97453.31
2023-04-18T02:25:50.846Z,97456.53
2023-04-18T02:28:54.454Z,97451.38
2023-04-18T02:31:59.425Z,97456.97
2023-04-18T02:35:03.086Z,97457.22
2023-04-18T02:38:06.971Z,97452.53
2023-04-18T02:41:15.329Z,97451.88
2023-04-18T02:44:19.281Z,97456.53
2023-04-18T02:47:23.243Z,97446.50
2023-04-18T02:50:27.085Z,97443.19
2023-04-18T02:53:32.465Z,97451.72
2023-04-18T02:56:40.094Z,97453.25
2023-04-18T03:00:08.430Z,97448.50
2023-04-18T03:03:36.586Z,97464.03
2023-04-18T03:07:02.651Z,97461.19
2023-04-18T03:10:11.453Z,97458.97
2023-04-18T03:13:17.610Z,97465.19
2023-04-18T03:16:23.247Z,97460.91
2023-04-18T03:19:27.244Z,97466.41
2023-04-18T03:22:32.940Z,97462.44
2023-04-18T03:25:36.753Z,97472.88
2023-04-18T03:28:43.391Z,97475.38
2023-04-18T03:31:47.366Z,97478.69
2023-04-18T03:34:52.311Z,97474.19
2023-04-18T03:37:56.104Z,97482.53
2023-04-18T03:41:06.989Z,97486.50
2023-04-18T03:44:15.738Z,97492.75
2023-04-18T03:47:19.723Z,97485.28
2023-04-18T03:50:26.628Z,97483.88
2023-04-18T03:53:33.251Z,97490.25
2023-04-18T03:56:37.345Z,97486.00
2023-04-18T03:59:43.018Z,97481.28
2023-04-18T04:02:47.239Z,97492.72
2023-04-18T04:05:57.871Z,97494.09
2023-04-18T04:09:01.929Z,97500.28
2023-04-18T04:12:06.905Z,97494.09
2023-04-18T04:15:13.058Z,97504.88
2023-04-18T04:18:29.822Z,97505.94
2023-04-18T04:21:35.953Z,97508.53
2023-04-18T04:24:42.284Z,97511.91
2023-04-18T04:27:49.735Z,97516.94
2023-04-18T04:30:55.563Z,97516.94
2023-04-18T04:33:59.115Z,97521.59
2023-04-18T04:37:03.076Z,97518.41
2023-04-18T04:40:10.757Z,97524.44
2023-04-18T04:43:20.479Z,97532.69
2023-04-18T04:46:26.693Z,97525.25
2023-04-18T04:49:31.393Z,97530.84
2023-04-18T04:52:35.081Z,97546.84
2023-04-18T04:55:40.128Z,97538.56
2023-04-18T04:58:45.158Z,97546.38
2023-04-18T05:02:01.531Z,97551.75
2023-04-18T05:05:05.581Z,97544.16
2023-04-18T05:08:09.517Z,97548.19
2023-04-18T05:11:13.068Z,97553.56
2023-04-18T05:14:17.680Z,97553.50
2023-04-18T05:17:22.563Z,97552.22
2023-04-18T05:20:26.382Z,97555.28
2023-04-18T05:23:29.944Z,97554.13
2023-04-18T05:26:33.703Z,97553.41
2023-04-18T05:29:37.066Z,97560.81
2023-04-18T05:32:42.397Z,97571.81
2023-04-18T05:35:45.929Z,97570.47
2023-04-18T05:38:49.791Z,97573.66
2023-04-18T05:41:53.271Z,97568.72
2023-04-18T05:44:57.669Z,97570.50
2023-04-18T05:48:02.573Z,97574.25
2023-04-18T05:51:06.780Z,97573.31
2023-04-18T05:54:10.582Z,97585.75
2023-04-18T05:57:14.391Z,97587.03
2023-04-18T06:00:18.855Z,97583.78
2023-04-18T06:03:24.150Z,97593.19
2023-04-18T06:06:27.853Z,97583.66
2023-04-18T06:09:31.595Z,97588.81
2023-04-18T06:12:35.202Z,97590.19
2023-04-18T06:15:39.005Z,97592.00
2023-04-18T06:18:43.863Z,97587.63
2023-04-18T06:21:47.939Z,97593.38
2023-04-18T06:24:51.520Z,97593.94
2023-04-18T06:27:55.342Z,97594.22
2023-04-18T06:30:58.849Z,97589.44
2023-04-18T06:34:04.068Z,97592.44
2023-04-18T06:37:07.692Z,97596.47
2023-04-18T06:40:12.537Z,97603.16
2023-04-18T06:43:16.044Z,97612.88
2023-04-18T06:46:22.435Z,97608.81
2023-04-18T06:49:27.324Z,97610.19
2023-04-18T06:52:31.134Z,97614.25
2023-04-18T06:55:34.629Z,97611.97
2023-04-18T06:58:38.317Z,97615.75
2023-04-18T07:01:42.665Z,97621.16
2023-04-18T07:04:48.040Z,97616.50
2023-04-18T07:07:51.724Z,97617.69
2023-04-18T07:10:55.669Z,97627.38
2023-04-18T07:13:59.106Z,97633.97
2023-04-18T07:17:03.081Z,97629.59
2023-04-18T07:20:12.350Z,97626.38
2023-04-18T07:23:18.032Z,97627.69
2023-04-18T07:26:21.623Z,97629.31
2023-04-18T07:29:25.440Z,97621.75
2023-04-18T07:32:28.831Z,97637.50
2023-04-18T07:35:34.144Z,97642.56
2023-04-18T07:38:37.817Z,97643.25
2023-04-18T07:41:41.581Z,97640.63
2023-04-18T07:44:45.190Z,97651.94
2023-04-18T07:47:49.091Z,97645.50
2023-04-18T07:50:54.484Z,97660.09
2023-04-18T07:53:58.477Z,97656.88
2023-04-18T07:57:01.961Z,97664.56
2023-04-18T08:00:07.353Z,97664.31
2023-04-18T08:03:16.534Z,97654.47
2023-04-18T08:06:22.685Z,97671.13
2023-04-18T08:09:26.426Z,97668.41
2023-04-18T08:12:30.583Z,97674.63
2023-04-18T08:15:33.977Z,97679.84
2023-04-18T08:18:37.773Z,97675.06
2023-04-18T08:21:42.748Z,97681.03
2023-04-18T08:24:57.222Z,97686.78
2023-04-18T08:28:07.098Z,97677.38
2023-04-18T08:31:13.584Z,97690.59
2023-04-18T08:34:17.194Z,97683.06
2023-04-18T08:37:22.299Z,97683.56
2023-04-18T08:40:25.706Z,97690.81
2023-04-18T08:43:31.226Z,97684.22
2023-04-18T08:46:36.046Z,97689.34
2023-04-18T08:49:40.017Z,97689.38
2023-04-18T08:52:48.934Z,97697.09
2023-04-18T08:55:55.182Z,97697.91
2023-04-18T08:59:00.247Z,97702.25
2023-04-18T09:02:05.033Z,97702.59
2023-04-18T09:05:13.131Z,97697.00
2023-04-18T09:08:25.120Z,97700.75
2023-04-18T09:11:31.813Z,97701.72
2023-04-18T09:14:37.442Z,97702.34
2023-04-18T09:17:43.897Z,97705.94
2023-04-18T09:20:49.991Z,97698.41
2023-04-18T09:24:17.592Z,97696.09
2023-04-18T09:27:23.063Z,97701.25
2023-04-18T09:30:36.988Z,97700.75
2023-04-18T09:33:43.116Z,97701.63
2023-04-18T09:36:46.521Z,97700.25
2023-04-18T09:39:51.923Z,97694.91
2023-04-18T09:42:55.643Z,97692.22
2023-04-18T09:46:01.190Z,97695.97
2023-04-18T09:49:04.844Z,97697.06
2023-04-18T09:52:09.678Z,97693.53
2023-04-18T09:55:16.275Z,97687.13
2023-04-18T09:58:23.447Z,97692.16
2023-04-18T10:01:29.871Z,97701.38
2023-04-18T10:04:34.230Z,97695.28
2023-04-18T10:07:38.762Z,97692.38
2023-04-18T10:10:45.034Z,97678.69
2023-04-18T10:13:51.038Z,97671.97
2023-04-18T10:16:54.912Z,97676.19
2023-04-18T10:20:10.075Z,97675.13
2023-04-18T10:23:36.541Z,97675.88
2023-04-18T10:26:50.350Z,97679.34
2023-04-18T10:29:55.211Z,97668.72
2023-04-18T10:32:58.609Z,97672.72
2023-04-18T10:36:06.196Z,97683.13
2023-04-18T10:39:22.491Z,97668.25
2023-04-18T10:43:00.494Z,97668.69
2023-04-18T10:46:31.776Z,97676.19
2023-04-18T10:49:37.795Z,97673.63
2023-04-18T10:52:42.128Z,97687.13
2023-04-18T10:55:56.810Z,97674.06
2023-04-18T10:59:03.681Z,97678.66
2023-04-18T11:02:20.187Z,97682.00
2023-04-18T11:05:26.575Z,97680.72
2023-04-18T11:08:30.857Z,97674.88
2023-04-18T11:11:34.370Z,97682.00
2023-04-18T11:14:42.924Z,97677.09
2023-04-18T11:17:46.463Z,97670.38
2023-04-18T11:20:51.801Z,97679.97
2023-04-18T11:23:57.806Z,97678.69
2023-04-18T11:27:01.858Z,97671.25
2023-04-18T11:30:08.339Z,97679.59
2023-04-18T11:33:12.919Z,97682.44
2023-04-18T11:36:16.504Z,97681.34
2023-04-18T11:39:20.758Z,97682.59
2023-04-18T11:42:28.056Z,97677.69
2023-04-18T11:45:33.506Z,97681.47
2023-04-18T11:48:37.332Z,97677.50
2023-04-18T11:51:44.765Z,97681.84
2023-04-18T11:54:48.409Z,97673.31
2023-04-18T11:57:53.886Z,97675.59
2023-04-18T12:00:58.937Z,97675.91
2023-04-18T12:04:04.035Z,97675.59
2023-04-18T12:07:07.687Z,97680.75
2023-04-18T12:10:25.625Z,97677.50
2023-04-18T12:13:35.963Z,97666.09
2023-04-18T12:16:42.817Z,97676.31
2023-04-18T12:19:49.283Z,97673.31
2023-04-18T12:22:55.126Z,97670.88
2023-04-18T12:26:03.228Z,97670.25
2023-04-18T12:29:06.895Z,97669.94
2023-04-18T12:32:11.604Z,97673.16
2023-04-18T12:35:15.598Z,97674.69
2023-04-18T12:38:22.639Z,97662.59
2023-04-18T12:41:26.930Z,97664.13
2023-04-18T12:44:30.479Z,97675.00
2023-04-18T12:47:35.924Z,97658.25
2023-04-18T12:50:39.786Z,97656.44
2023-04-18T12:53:43.572Z,97663.41
2023-04-18T12:56:47.497Z,97659.81
2023-04-18T12:59:51.703Z,97654.66
2023-04-18T13:02:58.465Z,97660.53
2023-04-18T13:06:02.422Z,97660.38
2023-04-18T13:09:05.851Z,97663.66
2023-04-18T13:12:09.812Z,97654.75
2023-04-18T13:15:13.336Z,97652.44
2023-04-18T13:18:18.488Z,97652.25
2023-04-18T13:21:24.957Z,97653.81
2023-04-18T13:24:28.837Z,97651.75
2023-04-18T13:27:32.570Z,97652.00
2023-04-18T13:30:37.535Z,97650.63
2023-04-18T13:33:42.601Z,97642.97
2023-04-18T13:36:46.869Z,97648.16
2023-04-18T13:39:51.054Z,97654.34
2023-04-18T13:42:54.848Z,97652.84
2023-04-18T13:45:58.363Z,97656.44
2023-04-18T13:49:03.541Z,97652.88
2023-04-18T13:52:07.057Z,97650.56
2023-04-18T13:55:12.508Z,97644.44
2023-04-18T13:58:16.446Z,97654.13
2023-04-18T14:01:21.052Z,97650.56
2023-04-18T14:04:26.177Z,97650.56
2023-04-18T14:07:31.217Z,97650.81
2023-04-18T14:10:35.002Z,97654.13
2023-04-18T14:13:39.118Z,97655.16
2023-04-18T14:16:42.603Z,97656.41
2023-04-18T14:19:48.173Z,97660.22
2023-04-18T14:22:53.145Z,97659.47
2023-04-18T14:25:57.321Z,97653.06
2023-04-18T14:29:01.076Z,97646.66
2023-04-18T14:32:08.243Z,97663.03
2023-04-18T14:35:13.222Z,97661.31
2023-04-18T14:38:17.159Z,97662.22
2023-04-18T14:41:20.645Z,97661.19
2023-04-18T14:44:24.537Z,97662.50
2023-04-18T14:47:31.992Z,97674.56
2023-04-18T14:50:38.713Z,97671.72
2023-04-18T14:53:43.704Z,97664.63
2023-04-18T14:56:47.540Z,97664.88
2023-04-18T14:59:51.352Z,97673.81
2023-04-18T15:02:55.670Z,97677.41
2023-04-18T15:06:00.597Z,97673.94
2023-04-18T15:09:04.597Z,97672.56
2023-04-18T15:12:08.811Z,97678.78
2023-04-18T15:15:14.067Z,97671.75
2023-04-18T15:18:17.497Z,97677.38
2023-04-18T15:21:22.569Z,97683.91
2023-04-18T15:24:25.964Z,97683.50
2023-04-18T15:27:30.059Z,97692.38
2023-04-18T15:30:34.040Z,97682.72
2023-04-18T15:33:37.747Z,97685.56
2023-04-18T15:36:42.581Z,97689.13
2023-04-18T15:39:46.338Z,97685.72
2023-04-18T15:42:51.037Z,97682.47
2023-04-18T15:45:54.763Z,97680.38
2023-04-18T15:48:58.214Z,97693.66
2023-04-18T15:52:07.378Z,97699.63
2023-04-18T15:55:12.461Z,97696.03
2023-04-18T15:58:16.353Z,97690.66
2023-04-18T16:01:20.669Z,97690.13
2023-04-18T16:04:24.421Z,97695.31
2023-04-18T16:07:29.328Z,97692.22
2023-04-18T16:10:33.122Z,97691.75
2023-04-18T16:13:38.255Z,97696.91
2023-04-18T16:16:42.704Z,97699.09
2023-04-18T16:19:46.241Z,97706.06
2023-04-18T16:22:51.295Z,97706.00
2023-04-18T16:25:55.669Z,97703.41
2023-04-18T16:28:59.617Z,97700.00
2023-04-18T16:32:03.116Z,97714.56
2023-04-18T16:35:10.199Z,97718.78
2023-04-18T16:38:15.092Z,97719.63
2023-04-18T16:41:19.183Z,97720.13
2023-04-18T16:44:22.699Z,97724.00
2023-04-18T16:47:26.507Z,97724.81
2023-04-18T16:50:30.308Z,97732.53
2023-04-18T16:53:36.096Z,97731.66
2023-04-18T16:56:39.862Z,97737.00
2023-04-18T16:59:43.791Z,97735.69
2023-04-18T17:02:48.381Z,97738.03
2023-04-18T17:05:52.326Z,97747.97
2023-04-18T17:08:58.309Z,97739.03
2023-04-18T17:12:03.377Z,97749.47
2023-04-18T17:15:07.752Z,97738.28
2023-04-18T17:18:11.782Z,97751.03
2023-04-18T17:21:15.398Z,97753.78
2023-04-18T17:24:22.487Z,97763.75
2023-04-18T17:27:25.985Z,97757.44
2023-04-18T17:30:29.785Z,97768.31
2023-04-18T17:33:33.772Z,97761.00
2023-04-18T17:36:37.593Z,97763.81
2023-04-18T17:39:42.549Z,97772.78
2023-04-18T17:42:47.762Z,97769.97
2023-04-18T17:45:51.743Z,97771.44
2023-04-18T17:48:55.674Z,97777.34
2023-04-18T17:51:59.116Z,97776.31
2023-04-18T17:55:04.445Z,97775.53
2023-04-18T17:58:07.967Z,97784.94
2023-04-18T18:04:35.611Z,97793.44
2023-04-18T18:07:45.904Z,97797.00
2023-04-18T18:10:53.428Z,97800.19
2023-04-18T18:13:59.282Z,97796.91
2023-04-18T18:17:03.319Z,97794.34
2023-04-18T18:20:09.902Z,97793.31
2023-04-18T18:23:13.447Z,97803.50
2023-04-18T18:26:18.930Z,97804.94
2023-04-18T18:29:25.103Z,97807.38
2023-04-18T18:32:29.133Z,97813.19
2023-04-18T18:35:32.780Z,97807.66
2023-04-18T18:38:37.447Z,97817.88
2023-04-18T18:41:43.372Z,97815.00
2023-04-18T18:44:47.126Z,97816.97
2023-04-18T18:47:51.178Z,97822.78
2023-04-18T18:50:56.665Z,97819.72
2023-04-18T18:54:00.318Z,97813.72
2023-04-18T18:57:05.825Z,97814.00
2023-04-18T19:00:12.073Z,97817.47
2023-04-18T19:03:19.042Z,97816.97
2023-04-18T19:06:23.472Z,97815.00
2023-04-18T19:09:27.452Z,97811.63
2023-04-18T19:12:32.715Z,97821.75
2023-04-18T19:15:36.882Z,97820.81
2023-04-18T19:18:41.540Z,97822.81
2023-04-18T19:21:46.096Z,97826.28
2023-04-18T19:24:49.611Z,97825.56
2023-04-18T19:27:54.774Z,97831.19
2023-04-18T19:30:58.376Z,97828.28
2023-04-18T19:34:03.869Z,97824.50
2023-04-18T19:37:07.284Z,97829.16
2023-04-18T19:40:14.274Z,97826.78
2023-04-18T19:43:19.625Z,97832.69
2023-04-18T19:46:24.054Z,97829.06
2023-04-18T19:49:27.622Z,97822.91
2023-04-18T19:52:31.906Z,97820.59
2023-04-18T19:55:35.568Z,97823.56
2023-04-18T19:58:46.741Z,97813.78
2023-04-18T20:01:50.399Z,97816.44
2023-04-18T20:04:54.466Z,97817.75
2023-04-18T20:07:58.100Z,97822.09
2023-04-18T20:11:04.718Z,97813.72
2023-04-18T20:14:10.278Z,97824.50
2023-04-18T20:17:14.700Z,97819.56
2023-04-18T20:20:18.199Z,97822.13
2023-04-18T20:23:22.465Z,97824.84
2023-04-18T20:26:26.121Z,97824.41
2023-04-18T20:29:32.477Z,97822.31
2023-04-18T20:32:35.967Z,97834.13
2023-04-18T20:35:40.611Z,97828.81
2023-04-18T20:38:44.497Z,97831.03
2023-04-18T20:41:50.981Z,97827.53
2023-04-18T20:44:56.226Z,97836.09
2023-04-18T20:48:00.831Z,97825.81
2023-04-18T20:51:04.510Z,97834.69
2023-04-18T20:54:08.305Z,97824.13
2023-04-18T20:57:11.881Z,97828.94
2023-04-18T21:00:18.450Z,97833.25
2023-04-18T21:03:22.059Z,97828.13
2023-04-18T21:06:27.209Z,97819.13
2023-04-18T21:09:36.427Z,97827.31
2023-04-18T21:12:40.313Z,97820.81
2023-04-18T21:15:45.426Z,97827.06
2023-04-18T21:18:49.320Z,97826.38
2023-04-18T21:21:52.775Z,97823.22
2023-04-18T21:24:56.719Z,97815.09
2023-04-18T21:28:00.570Z,97813.91
2023-04-18T21:31:05.920Z,97817.25
2023-04-18T21:34:11.261Z,97813.63
2023-04-18T21:37:14.972Z,97807.84
2023-04-18T21:40:18.930Z,97812.66
2023-04-18T21:43:22.732Z,97806.16
2023-04-18T21:46:27.745Z,97806.09
2023-04-18T21:49:31.443Z,97804.44
2023-04-18T21:52:34.970Z,97799.50
2023-04-18T21:55:38.735Z,97804.88
2023-04-18T21:58:42.435Z,97798.41
2023-04-18T22:01:47.477Z,97808.19
2023-04-18T22:04:51.307Z,97811.41
2023-04-18T22:07:58.412Z,97807.16
2023-04-18T22:11:02.211Z,97812.13
2023-04-18T22:14:06.290Z,97802.81
2023-04-18T22:17:11.221Z,97791.81
2023-04-18T22:20:15.123Z,97810.47
2023-04-18T22:23:18.459Z,97812.25
2023-04-18T22:26:22.319Z,97804.00
2023-04-18T22:29:26.896Z,97806.66
2023-04-18T22:32:32.403Z,97803.13
2023-04-18T22:35:36.027Z,97801.22
2023-04-18T22:38:39.873Z,97801.28
2023-04-18T22:41:43.303Z,97807.91
2023-04-18T22:44:49.948Z,97799.78
2023-04-18T22:47:54.848Z,97801.84
2023-04-18T22:51:01.803Z,97793.69
2023-04-18T22:54:05.279Z,97783.81
2023-04-18T22:57:09.171Z,97782.00
2023-04-18T23:00:14.560Z,97782.84
2023-04-18T23:03:20.126Z,97783.69
2023-04-18T23:06:23.760Z,97784.72
2023-04-18T23:09:27.702Z,97776.59
2023-04-18T23:12:31.242Z,97776.09
2023-04-18T23:15:35.274Z,97779.47
2023-04-18T23:18:42.192Z,97777.44
2023-04-18T23:21:47.636Z,97770.19
2023-04-18T23:24:52.722Z,97767.41
2023-04-18T23:27:56.508Z,97770.06
2023-04-18T23:31:00.299Z,97765.66
2023-04-18T23:34:05.520Z,97766.63
2023-04-18T23:37:09.644Z,97771.19
2023-04-18T23:40:13.510Z,97768.03
2023-04-18T23:43:17.006Z,97764.59
2023-04-18T23:46:20.884Z,97753.97
2023-04-18T23:49:27.989Z,97750.97
2023-04-18T23:52:31.697Z,97756.47
2023-04-18T23:55:35.295Z,97746.22
2023-04-18T23:58:39.071Z,97748.66
